Time;durP1;ratioP1;P1;durP2;ratioP2;P2;SDS_P1;SDS_P2;PMS_P1;PMS_P2;Temp;Humidity;BMP_temperature;BMP_pressure;BME280_temperature;BME280_humidity;BME280_pressure;Samples;Min_cycle;Max_cycle;Signal;HPM_P1;HPM_P2
2023/03/09 00:02:22;;;;;;;;;;;1.60;99.90;;;;;;5067223;28;19924;-83
2023/03/09 00:04:48;;;;;;;;;;;1.60;99.90;;;;;;5080656;28;19931;-83
2023/03/09 00:07:13;;;;;;;;;;;1.60;99.90;;;;;;5062190;28;19933;-83
2023/03/09 00:09:39;;;;;;;;;;;1.60;99.90;;;;;;5078113;28;19924;-84
2023/03/09 00:12:05;;;;;;;;;;;1.60;99.90;;;;;;5096956;28;20321;-83
2023/03/09 00:14:30;;;;;;;;;;;1.60;99.90;;;;;;5061625;28;19935;-83
2023/03/09 00:16:56;;;;;;;;;;;1.60;99.90;;;;;;5083195;28;19924;-83
2023/03/09 00:19:26;;;;;;;;;;;1.50;99.90;;;;;;5077839;28;19936;-84
2023/03/09 00:21:53;;;;;;;;;;;1.50;99.90;;;;;;5096528;28;19924;-84
2023/03/09 00:24:20;;;;;;;;;;;1.50;99.90;;;;;;5077608;28;19924;-83
2023/03/09 00:26:56;;;;;;;;;;;1.40;99.90;;;;;;5078051;28;20008;-83
2023/03/09 00:29:22;;;;;;;;;;;1.40;99.90;;;;;;5079255;28;19935;-83
2023/03/09 00:31:47;;;;;;;;;;;1.40;99.90;;;;;;5060949;28;19924;-83
2023/03/09 00:34:15;;;;;;;;;;;1.40;99.90;;;;;;5062639;28;19931;-83
2023/03/09 00:36:40;;;;;;;;;;;1.30;99.90;;;;;;5078005;28;19931;-84
2023/03/09 00:39:06;;;;;;;;;;;1.30;99.90;;;;;;5080225;28;19928;-83
2023/03/09 00:41:32;;;;;;;;;;;1.30;99.90;;;;;;5094536;28;19928;-84
2023/03/09 00:44:01;;;;;;;;;;;1.30;99.90;;;;;;5061401;28;20280;-83
2023/03/09 00:46:27;;;;;;;;;;;1.30;99.90;;;;;;5096098;28;19990;-83
2023/03/09 00:48:53;;;;;;;;;;;1.30;99.90;;;;;;5060772;28;19942;-83
2023/03/09 00:51:19;;;;;;;;;;;1.30;99.90;;;;;;5082808;28;20003;-83
2023/03/09 00:53:44;;;;;;;;;;;1.30;99.90;;;;;;5076559;28;19931;-83
2023/03/09 00:56:20;;;;;;;;;;;1.30;99.90;;;;;;5068811;28;19924;-84
2023/03/09 00:58:46;;;;;;;;;;;1.30;99.90;;;;;;5064810;28;19950;-83
2023/03/09 01:01:14;;;;;;;;;;;1.20;99.90;;;;;;5075334;28;20007;-83
2023/03/09 01:03:39;;;;;;;;;;;1.20;99.90;;;;;;5101560;28;19963;-83
2023/03/09 01:06:05;;;;;;;;;;;1.20;99.90;;;;;;5075595;28;19935;-84
2023/03/09 01:08:31;;;;;;;;;;;1.20;99.90;;;;;;5095911;28;19962;-84
2023/03/09 01:10:57;;;;;;;;;;;1.20;99.90;;;;;;5076147;28;19931;-84
2023/03/09 01:13:23;;;;;;;;;;;1.10;99.90;;;;;;5075201;28;19955;-83
2023/03/09 01:15:48;;;;;;;;;;;1.10;99.90;;;;;;5059680;28;19928;-84
2023/03/09 01:18:14;;;;;;;;;;;1.10;99.90;;;;;;5057339;28;19931;-84
2023/03/09 01:20:39;;;;;;;;;;;1.10;99.90;;;;;;5083793;28;19924;-83
2023/03/09 01:23:07;;;;;;;;;;;1.00;99.90;;;;;;5081015;28;20506;-84
2023/03/09 01:25:33;;;;;;;;;;;1.10;99.90;;;;;;5087736;28;19928;-84
2023/03/09 01:27:58;;;;;;;;;;;1.00;99.90;;;;;;5073805;28;19924;-84
2023/03/09 01:30:24;;;;;;;;;;;1.00;99.90;;;;;;5060708;28;19928;-84
2023/03/09 01:32:49;;;;;;;;;;;1.00;99.90;;;;;;5057210;28;20174;-83
2023/03/09 01:35:15;;;;;;;;;;;1.00;99.90;;;;;;5075536;28;19931;-84
2023/03/09 01:37:41;;;;;;;;;;;1.00;99.90;;;;;;5058096;28;19932;-84
2023/03/09 01:40:07;;;;;;;;;;;1.00;99.90;;;;;;5079420;28;19923;-84
2023/03/09 01:42:34;;;;;;;;;;;1.00;99.90;;;;;;5100295;28;19935;-84
2023/03/09 01:45:26;;;;;;;;;;;0.90;99.90;;;;;;5076011;28;19943;-84
2023/03/09 01:47:52;;;;;;;;;;;0.90;99.90;;;;;;5073797;28;19928;-84
2023/03/09 01:50:19;;;;;;;;;;;1.00;99.90;;;;;;5081071;28;20306;-84
2023/03/09 01:52:46;;;;;;;;;;;0.90;99.90;;;;;;5083340;28;19995;-84
2023/03/09 01:55:13;;;;;;;;;;;1.00;99.90;;;;;;5083231;28;19935;-84
2023/03/09 01:57:40;;;;;;;;;;;0.90;99.90;;;;;;5079186;28;19931;-84
2023/03/09 02:00:08;;;;;;;;;;;0.90;99.90;;;;;;5081414;28;19924;-84
2023/03/09 02:02:37;;;;;;;;;;;0.90;99.90;;;;;;5075399;28;19937;-84
2023/03/09 02:05:05;;;;;;;;;;;0.90;99.90;;;;;;5079622;28;19924;-84
2023/03/09 02:07:34;;;;;;;;;;;0.90;99.90;;;;;;5074224;28;20015;-84
2023/03/09 02:10:17;;;;;;;;;;;0.90;99.90;;;;;;5080485;28;19924;-84
2023/03/09 02:12:47;;;;;;;;;;;0.90;99.90;;;;;;5098975;28;19993;-83
2023/03/09 02:15:12;;;;;;;;;;;0.90;99.90;;;;;;5080825;28;19924;-84
2023/03/09 02:17:38;;;;;;;;;;;0.90;99.90;;;;;;5065959;28;19963;-84
2023/03/09 02:20:06;;;;;;;;;;;0.90;99.90;;;;;;5064227;28;19934;-83
2023/03/09 02:22:34;;;;;;;;;;;0.90;99.90;;;;;;5095279;28;19959;-84
2023/03/09 02:25:09;;;;;;;;;;;0.90;99.90;;;;;;5080945;28;19931;-84
2023/03/09 02:27:35;;;;;;;;;;;0.90;99.90;;;;;;5076520;28;19924;-84
2023/03/09 02:30:01;;;;;;;;;;;0.90;99.90;;;;;;5065053;28;19931;-83
2023/03/09 02:32:29;;;;;;;;;;;0.90;99.90;;;;;;5085073;28;19998;-84
2023/03/09 02:34:55;;;;;;;;;;;0.90;99.90;;;;;;5080148;28;19931;-84
2023/03/09 02:37:29;;;;;;;;;;;0.90;99.90;;;;;;5080365;28;19928;-83
2023/03/09 02:39:59;;;;;;;;;;;0.90;99.90;;;;;;5079489;28;19982;-83
2023/03/09 02:42:26;;;;;;;;;;;0.90;99.90;;;;;;5082124;28;19960;-83
2023/03/09 02:44:52;;;;;;;;;;;0.90;99.90;;;;;;5101156;28;19931;-83
2023/03/09 02:47:19;;;;;;;;;;;0.90;99.90;;;;;;5079684;28;19924;-83
2023/03/09 02:49:45;;;;;;;;;;;0.90;99.90;;;;;;5095812;28;19923;-85
2023/03/09 02:52:11;;;;;;;;;;;0.90;99.90;;;;;;5084610;28;19935;-84
2023/03/09 02:54:36;;;;;;;;;;;0.90;99.90;;;;;;5080214;28;19924;-83
2023/03/09 02:57:02;;;;;;;;;;;1.00;99.90;;;;;;5061122;28;19924;-83
2023/03/09 02:59:28;;;;;;;;;;;0.90;99.90;;;;;;5066851;28;19943;-83
2023/03/09 03:01:53;;;;;;;;;;;0.90;99.90;;;;;;5062047;28;19978;-84
2023/03/09 03:04:19;;;;;;;;;;;0.90;99.90;;;;;;5071439;28;19979;-84
2023/03/09 03:06:44;;;;;;;;;;;0.90;99.90;;;;;;5061965;28;19924;-83
2023/03/09 03:09:10;;;;;;;;;;;0.90;99.90;;;;;;5097073;28;19924;-83
2023/03/09 03:11:36;;;;;;;;;;;0.90;99.90;;;;;;5066930;28;19945;-83
2023/03/09 03:14:01;;;;;;;;;;;0.90;99.90;;;;;;5077594;28;20015;-84
2023/03/09 03:16:27;;;;;;;;;;;0.90;99.90;;;;;;5084948;28;20363;-83
2023/03/09 03:18:52;;;;;;;;;;;1.00;99.90;;;;;;5087339;28;19924;-84
2023/03/09 03:21:18;;;;;;;;;;;1.00;99.90;;;;;;5066068;28;19925;-84
2023/03/09 03:23:44;;;;;;;;;;;1.00;99.90;;;;;;5070780;28;20302;-84
2023/03/09 03:26:11;;;;;;;;;;;1.00;99.90;;;;;;5098592;28;19954;-84
2023/03/09 03:28:37;;;;;;;;;;;1.00;99.90;;;;;;5076970;28;19971;-84
2023/03/09 03:31:02;;;;;;;;;;;1.00;99.90;;;;;;5078115;28;19924;-84
2023/03/09 03:33:28;;;;;;;;;;;1.00;99.90;;;;;;5071181;28;19936;-84
2023/03/09 03:35:54;;;;;;;;;;;1.00;99.90;;;;;;5077398;28;19931;-84
2023/03/09 03:38:20;;;;;;;;;;;1.00;99.90;;;;;;5096122;28;20040;-84
2023/03/09 03:40:45;;;;;;;;;;;1.00;99.90;;;;;;5105931;28;19928;-84
2023/03/09 03:43:11;;;;;;;;;;;1.00;99.90;;;;;;5063324;28;20554;-84
2023/03/09 03:45:36;;;;;;;;;;;1.00;99.90;;;;;;5058411;28;19924;-86
2023/03/09 03:48:02;;;;;;;;;;;1.00;99.90;;;;;;5078472;28;19968;-84
2023/03/09 03:50:28;;;;;;;;;;;1.00;99.90;;;;;;5061565;28;19939;-83
2023/03/09 03:52:53;;;;;;;;;;;1.00;99.90;;;;;;5093767;28;19969;-84
2023/03/09 03:55:19;;;;;;;;;;;1.00;99.90;;;;;;5080722;28;19924;-84
2023/03/09 03:57:44;;;;;;;;;;;1.00;99.90;;;;;;5071136;28;19925;-84
2023/03/09 04:00:10;;;;;;;;;;;1.00;99.90;;;;;;5073033;28;19994;-84
2023/03/09 04:02:36;;;;;;;;;;;1.00;99.90;;;;;;5062148;28;19924;-84
2023/03/09 04:05:02;;;;;;;;;;;1.00;99.90;;;;;;5080386;28;19924;-84
2023/03/09 04:07:28;;;;;;;;;;;1.10;99.90;;;;;;5062125;28;20000;-84
2023/03/09 04:09:53;;;;;;;;;;;1.00;99.90;;;;;;5078508;28;19930;-84
2023/03/09 04:12:19;;;;;;;;;;;1.00;99.90;;;;;;5062925;28;19991;-84
2023/03/09 04:14:45;;;;;;;;;;;1.00;99.90;;;;;;5068067;28;19924;-84
2023/03/09 04:17:10;;;;;;;;;;;1.00;99.90;;;;;;5070733;28;20354;-84
2023/03/09 04:19:36;;;;;;;;;;;1.00;99.90;;;;;;5070990;28;20367;-84
2023/03/09 04:22:02;;;;;;;;;;;1.00;99.90;;;;;;5052668;28;20421;-84
2023/03/09 04:24:27;;;;;;;;;;;1.00;99.90;;;;;;5074633;28;20380;-84
2023/03/09 04:26:53;;;;;;;;;;;1.00;99.90;;;;;;5079784;28;19923;-84
2023/03/09 04:29:19;;;;;;;;;;;1.00;99.90;;;;;;5078861;28;19924;-85
2023/03/09 04:31:44;;;;;;;;;;;1.00;99.90;;;;;;5076763;28;19928;-84
2023/03/09 04:34:10;;;;;;;;;;;1.00;99.90;;;;;;5060992;28;19950;-84
2023/03/09 04:36:36;;;;;;;;;;;1.10;99.90;;;;;;5088272;28;19928;-85
2023/03/09 04:39:03;;;;;;;;;;;1.10;99.90;;;;;;5101801;28;19928;-84
2023/03/09 04:41:29;;;;;;;;;;;1.10;99.90;;;;;;5073293;28;19924;-84
2023/03/09 04:43:54;;;;;;;;;;;1.00;99.90;;;;;;5072850;28;19924;-85
2023/03/09 04:46:20;;;;;;;;;;;1.00;99.90;;;;;;5077907;28;19994;-84
2023/03/09 04:48:45;;;;;;;;;;;1.10;99.90;;;;;;5060034;28;19924;-85
2023/03/09 04:51:11;;;;;;;;;;;1.00;99.90;;;;;;5077599;28;20031;-85
2023/03/09 04:53:37;;;;;;;;;;;1.00;99.90;;;;;;5054998;28;19978;-85
2023/03/09 04:56:02;;;;;;;;;;;1.00;99.90;;;;;;5061571;28;19935;-85
2023/03/09 04:58:28;;;;;;;;;;;1.00;99.90;;;;;;5093292;28;19931;-84
2023/03/09 05:00:53;;;;;;;;;;;0.90;99.90;;;;;;5059443;28;19978;-86
2023/03/09 05:03:19;;;;;;;;;;;0.90;99.90;;;;;;5056753;28;19925;-84
2023/03/09 05:05:45;;;;;;;;;;;0.90;99.90;;;;;;5075455;28;19924;-85
2023/03/09 05:08:10;;;;;;;;;;;0.90;99.90;;;;;;5057343;28;19971;-85
2023/03/09 05:10:36;;;;;;;;;;;0.90;99.90;;;;;;5054713;28;20307;-85
2023/03/09 05:13:02;;;;;;;;;;;0.80;99.90;;;;;;5071526;28;19928;-85
2023/03/09 05:15:28;;;;;;;;;;;0.80;99.90;;;;;;5077214;28;20012;-85
2023/03/09 05:17:53;;;;;;;;;;;0.80;99.90;;;;;;5078804;28;20002;-85
2023/03/09 05:20:19;;;;;;;;;;;0.80;99.90;;;;;;5058788;28;20144;-84
2023/03/09 05:22:44;;;;;;;;;;;0.80;99.90;;;;;;5078446;28;19924;-85
2023/03/09 05:25:10;;;;;;;;;;;0.80;99.90;;;;;;5060875;28;19928;-84
2023/03/09 05:27:36;;;;;;;;;;;0.70;99.90;;;;;;5061498;28;19991;-85
2023/03/09 05:30:02;;;;;;;;;;;0.80;99.90;;;;;;5068182;28;20006;-85
2023/03/09 05:32:28;;;;;;;;;;;0.80;99.90;;;;;;5065623;28;19925;-84
2023/03/09 05:34:53;;;;;;;;;;;0.80;99.90;;;;;;5067268;28;19985;-85
2023/03/09 05:37:19;;;;;;;;;;;0.70;99.90;;;;;;5074313;28;19928;-84
2023/03/09 05:39:44;;;;;;;;;;;0.70;99.90;;;;;;5080878;28;20401;-84
2023/03/09 05:42:10;;;;;;;;;;;0.70;99.90;;;;;;5075724;28;19951;-84
2023/03/09 05:44:36;;;;;;;;;;;0.70;99.90;;;;;;5060757;28;19924;-84
2023/03/09 05:47:01;;;;;;;;;;;0.70;99.90;;;;;;5064127;28;20062;-84
2023/03/09 05:49:27;;;;;;;;;;;0.80;99.90;;;;;;5069867;28;19924;-84
2023/03/09 05:51:56;;;;;;;;;;;0.80;99.90;;;;;;5078158;28;19931;-84
2023/03/09 05:54:22;;;;;;;;;;;0.90;99.90;;;;;;5054902;28;20390;-83
2023/03/09 05:56:48;;;;;;;;;;;0.90;99.90;;;;;;5081074;28;19924;-84
2023/03/09 05:59:13;;;;;;;;;;;0.90;99.90;;;;;;5101460;28;19943;-84
2023/03/09 06:01:39;;;;;;;;;;;0.80;99.90;;;;;;5070991;28;19946;-84
2023/03/09 06:04:05;;;;;;;;;;;0.80;99.90;;;;;;5065209;28;19935;-85
2023/03/09 06:06:30;;;;;;;;;;;0.80;99.90;;;;;;5079962;28;19945;-85
2023/03/09 06:08:56;;;;;;;;;;;0.80;99.90;;;;;;5098917;28;19931;-85
2023/03/09 06:11:21;;;;;;;;;;;0.90;99.90;;;;;;5090921;28;20077;-85
2023/03/09 06:13:47;;;;;;;;;;;0.80;99.90;;;;;;5098677;28;19982;-85
2023/03/09 06:16:15;;;;;;;;;;;0.90;99.90;;;;;;5099369;28;19967;-85
2023/03/09 06:18:41;;;;;;;;;;;0.80;99.90;;;;;;5097283;28;19924;-85
2023/03/09 06:21:08;;;;;;;;;;;0.90;99.90;;;;;;5081125;28;19965;-85
2023/03/09 06:23:36;;;;;;;;;;;0.90;99.90;;;;;;5088651;28;19924;-85
2023/03/09 06:26:03;;;;;;;;;;;0.90;99.90;;;;;;5069162;28;20007;-85
2023/03/09 06:28:28;;;;;;;;;;;0.90;99.90;;;;;;5091686;28;19988;-84
2023/03/09 06:30:54;;;;;;;;;;;0.90;99.90;;;;;;5086879;28;19963;-85
2023/03/09 06:33:20;;;;;;;;;;;0.90;99.90;;;;;;5063805;28;19975;-84
2023/03/09 06:35:45;;;;;;;;;;;1.00;99.90;;;;;;5078908;28;19924;-84
2023/03/09 06:38:11;;;;;;;;;;;1.00;99.90;;;;;;5058863;28;19932;-85
2023/03/09 06:40:36;;;;;;;;;;;1.00;99.90;;;;;;5057506;28;19935;-84
2023/03/09 06:43:02;;;;;;;;;;;1.00;99.90;;;;;;5059489;28;22220;-84
2023/03/09 06:45:28;;;;;;;;;;;1.00;99.90;;;;;;5059202;28;19928;-83
2023/03/09 06:47:54;;;;;;;;;;;1.00;99.90;;;;;;5057416;28;20656;-83
2023/03/09 06:50:19;;;;;;;;;;;1.00;99.90;;;;;;5072829;28;20357;-84
2023/03/09 06:52:45;;;;;;;;;;;1.00;99.90;;;;;;5057308;28;19946;-84
2023/03/09 06:55:11;;;;;;;;;;;1.00;99.90;;;;;;5073743;28;19928;-84
2023/03/09 06:57:37;;;;;;;;;;;1.10;99.90;;;;;;5089393;28;19928;-84
2023/03/09 07:00:04;;;;;;;;;;;1.10;99.90;;;;;;5076998;28;19970;-84
2023/03/09 07:02:31;;;;;;;;;;;1.10;99.90;;;;;;5073253;28;19924;-85
2023/03/09 07:04:56;;;;;;;;;;;1.20;99.90;;;;;;5068532;28;19924;-85
2023/03/09 07:07:22;;;;;;;;;;;1.20;99.90;;;;;;5055889;28;19935;-85
2023/03/09 07:09:48;;;;;;;;;;;1.20;99.90;;;;;;5055704;28;19928;-87
2023/03/09 07:12:13;;;;;;;;;;;1.30;99.90;;;;;;5070248;28;19931;-86
2023/03/09 07:14:39;;;;;;;;;;;1.30;99.90;;;;;;5067181;28;19939;-85
2023/03/09 07:17:05;;;;;;;;;;;1.40;99.90;;;;;;5054043;28;19959;-86
2023/03/09 07:19:30;;;;;;;;;;;1.50;99.90;;;;;;5070323;28;19939;-85
2023/03/09 07:21:56;;;;;;;;;;;1.50;99.90;;;;;;5078138;28;20016;-86
2023/03/09 07:24:21;;;;;;;;;;;1.50;99.90;;;;;;5069369;28;19928;-85
2023/03/09 07:26:47;;;;;;;;;;;1.50;99.90;;;;;;5074819;28;19995;-86
2023/03/09 07:29:13;;;;;;;;;;;1.50;99.90;;;;;;5081308;28;19935;-85
2023/03/09 07:31:39;;;;;;;;;;;1.50;99.90;;;;;;5076092;28;19991;-85
2023/03/09 07:34:05;;;;;;;;;;;1.50;99.90;;;;;;5061679;28;20350;-85
2023/03/09 07:36:30;;;;;;;;;;;1.50;99.90;;;;;;5057590;28;19934;-85
2023/03/09 07:38:56;;;;;;;;;;;1.50;99.90;;;;;;5069781;28;19924;-86
2023/03/09 07:41:22;;;;;;;;;;;1.50;99.90;;;;;;5069009;28;20150;-82
2023/03/09 07:43:47;;;;;;;;;;;1.50;99.90;;;;;;5072603;28;19935;-85
2023/03/09 07:46:15;;;;;;;;;;;1.60;99.90;;;;;;5067962;28;19928;-85
2023/03/09 07:48:41;;;;;;;;;;;1.60;99.90;;;;;;5076747;28;19924;-85
2023/03/09 07:51:07;;;;;;;;;;;1.70;99.90;;;;;;5069623;28;19924;-85
2023/03/09 07:53:34;;;;;;;;;;;1.70;99.90;;;;;;5056772;28;19930;-84
2023/03/09 07:56:03;;;;;;;;;;;1.70;99.90;;;;;;5089714;28;19931;-85
2023/03/09 07:58:33;;;;;;;;;;;1.70;99.90;;;;;;5088888;28;19924;-85
2023/03/09 08:00:58;;;;;;;;;;;1.80;99.90;;;;;;5107102;28;19924;-86
2023/03/09 08:03:24;;;;;;;;;;;1.80;99.90;;;;;;5057742;28;19925;-86
2023/03/09 08:05:54;;;;;;;;;;;1.80;99.90;;;;;;5072724;28;19928;-86
2023/03/09 08:08:23;;;;;;;;;;;1.80;99.90;;;;;;5056374;28;19932;-86
2023/03/09 08:10:50;;;;;;;;;;;1.90;99.90;;;;;;5098338;28;20060;-86
2023/03/09 08:13:15;;;;;;;;;;;1.90;99.90;;;;;;5071536;28;19928;-86
2023/03/09 08:15:41;;;;;;;;;;;1.90;99.90;;;;;;5061973;28;19935;-86
2023/03/09 08:18:07;;;;;;;;;;;2.00;99.90;;;;;;5078714;28;19947;-86
2023/03/09 08:20:32;;;;;;;;;;;2.00;99.90;;;;;;5088429;28;19924;-86
2023/03/09 08:22:58;;;;;;;;;;;2.10;99.90;;;;;;5061309;28;19967;-86
2023/03/09 08:25:24;;;;;;;;;;;2.10;99.90;;;;;;5080079;28;19964;-86
2023/03/09 08:27:50;;;;;;;;;;;2.20;99.90;;;;;;5078130;28;19946;-86
2023/03/09 08:30:17;;;;;;;;;;;2.30;99.90;;;;;;5068290;28;19931;-86
2023/03/09 08:32:46;;;;;;;;;;;2.30;99.90;;;;;;5059477;28;19924;-85
2023/03/09 08:35:11;;;;;;;;;;;2.40;99.90;;;;;;5062934;28;19928;-86
2023/03/09 08:37:37;;;;;;;;;;;2.40;99.90;;;;;;5062842;28;19991;-85
2023/03/09 08:40:03;;;;;;;;;;;2.40;99.90;;;;;;5077221;28;20355;-85
2023/03/09 08:42:28;;;;;;;;;;;2.50;99.90;;;;;;5063016;28;19924;-85
2023/03/09 08:44:54;;;;;;;;;;;2.50;99.90;;;;;;5059822;28;19935;-86
2023/03/09 08:47:19;;;;;;;;;;;2.60;99.90;;;;;;5061756;28;20000;-86
2023/03/09 08:49:46;;;;;;;;;;;2.60;99.90;;;;;;5086809;28;19932;-85
2023/03/09 08:52:12;;;;;;;;;;;2.70;99.90;;;;;;5073053;28;19963;-86
2023/03/09 08:54:38;;;;;;;;;;;2.70;99.90;;;;;;5060112;28;20370;-84
2023/03/09 08:57:04;;;;;;;;;;;2.80;99.90;;;;;;5077194;28;19931;-85
2023/03/09 08:59:31;;;;;;;;;;;2.80;99.90;;;;;;5087601;28;19924;-85
2023/03/09 09:01:57;;;;;;;;;;;2.80;99.90;;;;;;5054735;28;19971;-85
2023/03/09 09:04:23;;;;;;;;;;;2.90;99.90;;;;;;5083418;28;19992;-85
2023/03/09 09:06:49;;;;;;;;;;;2.90;99.90;;;;;;5086962;28;19924;-84
2023/03/09 09:09:14;;;;;;;;;;;2.90;99.90;;;;;;5062691;28;20085;-85
2023/03/09 09:11:40;;;;;;;;;;;3.00;99.90;;;;;;5110381;28;19925;-85
2023/03/09 09:14:05;;;;;;;;;;;3.00;99.90;;;;;;5058063;28;20673;-85
2023/03/09 09:16:31;;;;;;;;;;;3.00;99.90;;;;;;5058092;28;19932;-84
2023/03/09 09:18:57;;;;;;;;;;;3.10;99.90;;;;;;5064166;28;20387;-85
2023/03/09 09:21:23;;;;;;;;;;;3.10;99.90;;;;;;5072099;28;19932;-85
2023/03/09 09:23:49;;;;;;;;;;;3.10;99.90;;;;;;5087504;28;20419;-84
2023/03/09 09:26:15;;;;;;;;;;;3.20;99.90;;;;;;5060161;28;19928;-84
2023/03/09 09:28:41;;;;;;;;;;;3.20;99.90;;;;;;5075643;28;19924;-85
2023/03/09 09:31:07;;;;;;;;;;;3.20;99.90;;;;;;5074945;28;20007;-85
2023/03/09 09:33:33;;;;;;;;;;;3.20;99.90;;;;;;5081294;28;19994;-84
2023/03/09 09:36:00;;;;;;;;;;;3.20;99.90;;;;;;5078320;28;19924;-85
2023/03/09 09:38:26;;;;;;;;;;;3.20;99.90;;;;;;5076051;28;19928;-85
2023/03/09 09:40:53;;;;;;;;;;;3.20;99.90;;;;;;5065230;28;19932;-85
2023/03/09 09:43:20;;;;;;;;;;;3.30;99.90;;;;;;5092490;28;20018;-84
2023/03/09 09:45:46;;;;;;;;;;;3.20;99.90;;;;;;5079540;28;19942;-85
2023/03/09 09:48:17;;;;;;;;;;;3.20;99.90;;;;;;5063791;28;19935;-85
2023/03/09 09:50:46;;;;;;;;;;;3.20;99.90;;;;;;5078495;28;19947;-85
2023/03/09 09:53:30;;;;;;;;;;;3.20;99.90;;;;;;5067230;28;19938;-85
2023/03/09 09:55:56;;;;;;;;;;;3.20;99.90;;;;;;5071501;28;19924;-84
2023/03/09 09:58:22;;;;;;;;;;;3.20;99.90;;;;;;5071589;28;19938;-85
2023/03/09 10:00:50;;;;;;;;;;;3.10;99.90;;;;;;5079196;28;20314;-85
2023/03/09 10:03:24;;;;;;;;;;;3.10;99.90;;;;;;5073975;28;19924;-85
2023/03/09 10:05:53;;;;;;;;;;;3.10;99.90;;;;;;5125937;27;19932;-85
2023/03/09 10:08:31;;;;;;;;;;;3.10;99.90;;;;;;5071059;28;19947;-84
2023/03/09 10:11:00;;;;;;;;;;;3.10;99.90;;;;;;5071673;28;20030;-84
2023/03/09 10:13:39;;;;;;;;;;;3.20;99.90;;;;;;5093203;28;19924;-84
2023/03/09 10:16:07;;;;;;;;;;;3.20;99.90;;;;;;5072300;28;19928;-84
2023/03/09 10:18:37;;;;;;;;;;;3.20;99.90;;;;;;5070082;28;20088;-85
2023/03/09 10:21:03;;;;;;;;;;;3.20;99.90;;;;;;5083947;28;19928;-84
2023/03/09 10:23:30;;;;;;;;;;;3.20;99.90;;;;;;5090048;28;20267;-85
2023/03/09 10:26:12;;;;;;;;;;;3.20;99.90;;;;;;5073404;28;19928;-85
2023/03/09 10:28:42;;;;;;;;;;;3.30;99.90;;;;;;5085893;28;19924;-84
2023/03/09 10:31:17;;;;;;;;;;;3.30;99.90;;;;;;5073971;28;19928;-84
2023/03/09 10:33:44;;;;;;;;;;;3.40;99.90;;;;;;5073853;28;19924;-85
2023/03/09 10:36:29;;;;;;;;;;;3.40;99.90;;;;;;5071479;28;19956;-85
2023/03/09 10:38:56;;;;;;;;;;;3.40;99.90;;;;;;5090092;28;20442;-84
2023/03/09 10:41:22;;;;;;;;;;;3.50;99.90;;;;;;5056886;28;19928;-84
2023/03/09 10:43:47;;;;;;;;;;;3.50;99.90;;;;;;5072581;28;19927;-84
2023/03/09 10:46:18;;;;;;;;;;;3.60;99.90;;;;;;5060505;28;19947;-84
2023/03/09 10:48:45;;;;;;;;;;;3.70;99.90;;;;;;5075609;28;19968;-84
2023/03/09 10:51:23;;;;;;;;;;;3.70;99.90;;;;;;5057261;28;20371;-84
2023/03/09 10:53:48;;;;;;;;;;;3.80;99.90;;;;;;5073845;28;19945;-84
2023/03/09 10:56:14;;;;;;;;;;;3.80;99.90;;;;;;5069254;28;19963;-84
2023/03/09 10:58:39;;;;;;;;;;;3.80;99.90;;;;;;5088723;28;19933;-84
2023/03/09 11:01:19;;;;;;;;;;;3.90;99.90;;;;;;5054202;28;19986;-83
2023/03/09 11:03:44;;;;;;;;;;;3.90;99.90;;;;;;5074072;28;19939;-85
2023/03/09 11:06:42;;;;;;;;;;;3.80;99.90;;;;;;5061305;28;19980;-84
2023/03/09 11:09:13;;;;;;;;;;;3.70;99.90;;;;;;5042598;28;19928;-84
2023/03/09 11:11:39;;;;;;;;;;;3.70;99.90;;;;;;5073348;28;19928;-85
2023/03/09 11:14:18;;;;;;;;;;;3.70;99.90;;;;;;5077107;28;20019;-83
2023/03/09 11:16:48;;;;;;;;;;;3.70;99.90;;;;;;5073094;28;19924;-84
2023/03/09 11:19:16;;;;;;;;;;;3.70;99.90;;;;;;5070110;28;20249;-84
2023/03/09 11:21:57;;;;;;;;;;;3.70;99.90;;;;;;5087742;28;20025;-84
2023/03/09 11:24:24;;;;;;;;;;;3.70;99.90;;;;;;5071937;28;20014;-83
2023/03/09 11:27:13;;;;;;;;;;;3.70;99.90;;;;;;5071466;28;19958;-84
2023/03/09 11:29:52;;;;;;;;;;;3.70;99.90;;;;;;5066865;28;20403;-83
2023/03/09 11:32:18;;;;;;;;;;;3.70;99.90;;;;;;5086185;28;19932;-84
2023/03/09 11:34:44;;;;;;;;;;;3.80;99.90;;;;;;5088986;28;19960;-84
2023/03/09 11:37:13;;;;;;;;;;;3.80;99.90;;;;;;5059705;28;19932;-83
2023/03/09 11:39:42;;;;;;;;;;;3.70;99.90;;;;;;5070572;28;19973;-84
2023/03/09 11:42:11;;;;;;;;;;;3.70;99.90;;;;;;5099029;28;19932;-84
2023/03/09 11:44:39;;;;;;;;;;;3.70;99.90;;;;;;5069855;28;19935;-84
2023/03/09 11:47:09;;;;;;;;;;;3.70;99.90;;;;;;5075207;28;20010;-84
2023/03/09 11:49:35;;;;;;;;;;;3.70;99.90;;;;;;5099812;28;20018;-84
2023/03/09 11:52:04;;;;;;;;;;;3.70;99.90;;;;;;5057597;28;20052;-84
2023/03/09 11:54:30;;;;;;;;;;;3.70;99.90;;;;;;5068104;28;20423;-84
2023/03/09 11:56:55;;;;;;;;;;;3.70;99.90;;;;;;5070936;28;19942;-84
2023/03/09 11:59:40;;;;;;;;;;;3.60;99.90;;;;;;5086879;28;19925;-83
2023/03/09 12:02:23;;;;;;;;;;;3.70;99.90;;;;;;5084031;28;19928;-84
2023/03/09 12:04:52;;;;;;;;;;;3.70;99.90;;;;;;5085807;28;19928;-84
2023/03/09 12:07:28;;;;;;;;;;;3.70;99.90;;;;;;5072060;28;19937;-84
2023/03/09 12:10:00;;;;;;;;;;;3.70;99.90;;;;;;5068798;28;19924;-83
2023/03/09 12:12:30;;;;;;;;;;;3.80;99.90;;;;;;5072072;28;19973;-83
2023/03/09 12:15:04;;;;;;;;;;;3.80;99.90;;;;;;5068768;28;19924;-83
2023/03/09 12:17:35;;;;;;;;;;;3.90;99.90;;;;;;5070992;28;19924;-83
2023/03/09 12:20:01;;;;;;;;;;;3.90;99.90;;;;;;5073863;28;20060;-83
2023/03/09 12:22:36;;;;;;;;;;;3.90;99.90;;;;;;5093645;28;20007;-83
2023/03/09 12:25:16;;;;;;;;;;;4.00;99.90;;;;;;5077419;28;19963;-83
2023/03/09 12:27:47;;;;;;;;;;;4.00;99.90;;;;;;5101716;28;19934;-83
2023/03/09 12:30:22;;;;;;;;;;;4.00;99.90;;;;;;5075868;28;19934;-83
2023/03/09 12:32:48;;;;;;;;;;;4.10;99.90;;;;;;5110330;28;19924;-83
2023/03/09 12:35:20;;;;;;;;;;;4.10;99.90;;;;;;5077027;28;20420;-83
2023/03/09 12:37:48;;;;;;;;;;;4.10;99.90;;;;;;5093746;28;19928;-83
2023/03/09 12:40:26;;;;;;;;;;;4.10;99.90;;;;;;5068630;28;20498;-83
2023/03/09 12:42:53;;;;;;;;;;;4.10;99.90;;;;;;5078512;28;20461;-83
2023/03/09 12:45:19;;;;;;;;;;;4.10;99.90;;;;;;5071303;28;19925;-83
2023/03/09 12:47:47;;;;;;;;;;;4.10;99.90;;;;;;5069044;28;20004;-83
2023/03/09 12:50:31;;;;;;;;;;;4.10;99.90;;;;;;5089400;28;19971;-83
2023/03/09 12:53:15;;;;;;;;;;;4.10;99.90;;;;;;5067335;28;19995;-84
2023/03/09 12:55:44;;;;;;;;;;;4.10;99.90;;;;;;5071767;28;19928;-83
2023/03/09 12:58:21;;;;;;;;;;;4.10;99.90;;;;;;5070223;28;20517;-84
2023/03/09 13:00:54;;;;;;;;;;;4.10;99.90;;;;;;5098003;28;19924;-84
2023/03/09 13:03:34;;;;;;;;;;;4.10;99.90;;;;;;5070138;28;19951;-83
2023/03/09 13:06:20;;;;;;;;;;;4.10;99.90;;;;;;5070234;28;19939;-83
2023/03/09 13:08:49;;;;;;;;;;;4.10;99.90;;;;;;5063046;28;19935;-84
2023/03/09 13:11:24;;;;;;;;;;;4.10;99.90;;;;;;5074799;28;19928;-84
2023/03/09 13:13:53;;;;;;;;;;;4.10;99.90;;;;;;5072962;28;20388;-84
2023/03/09 13:16:31;;;;;;;;;;;4.10;99.90;;;;;;5079695;28;20473;-78
2023/03/09 13:19:18;;;;;;;;;;;4.10;99.90;;;;;;5074023;28;19931;-79
2023/03/09 13:21:46;;;;;;;;;;;4.10;99.90;;;;;;5072059;28;20021;-79
2023/03/09 13:24:40;;;;;;;;;;;4.10;99.90;;;;;;5092085;28;19928;-79
2023/03/09 13:27:11;;;;;;;;;;;4.10;99.90;;;;;;5078294;28;19946;-79
2023/03/09 13:29:38;;;;;;;;;;;4.10;99.90;;;;;;5086165;28;19964;-79
2023/03/09 13:32:04;;;;;;;;;;;4.10;99.90;;;;;;5069727;28;19945;-79
2023/03/09 13:34:34;;;;;;;;;;;4.10;99.90;;;;;;5071073;28;19928;-78
2023/03/09 13:37:02;;;;;;;;;;;4.00;99.90;;;;;;5066675;28;20490;-79
2023/03/09 13:39:28;;;;;;;;;;;4.00;99.90;;;;;;5074551;28;19945;-80
2023/03/09 13:41:55;;;;;;;;;;;4.00;99.90;;;;;;5072251;28;19934;-79
2023/03/09 13:44:23;;;;;;;;;;;3.90;99.90;;;;;;5085245;28;19990;-80
2023/03/09 13:46:53;;;;;;;;;;;3.90;99.90;;;;;;5069368;28;20382;-79
2023/03/09 13:49:45;;;;;;;;;;;3.80;99.90;;;;;;5083646;28;19955;-79
2023/03/09 13:52:16;;;;;;;;;;;3.80;99.90;;;;;;5083858;28;19973;-80
2023/03/09 13:54:50;;;;;;;;;;;3.80;99.90;;;;;;5068848;28;20725;-80
2023/03/09 13:57:19;;;;;;;;;;;3.80;99.90;;;;;;5066254;28;20584;-80
2023/03/09 13:59:48;;;;;;;;;;;3.80;99.90;;;;;;5075532;28;19923;-80
2023/03/09 14:02:14;;;;;;;;;;;3.80;99.90;;;;;;5068871;28;19981;-79
2023/03/09 14:04:46;;;;;;;;;;;3.70;99.90;;;;;;5073658;28;19924;-73
2023/03/09 14:07:21;;;;;;;;;;;3.70;99.90;;;;;;5089296;28;19939;-73
2023/03/09 14:09:51;;;;;;;;;;;3.60;99.90;;;;;;5089747;28;19924;-73
2023/03/09 14:12:29;;;;;;;;;;;3.60;99.90;;;;;;5075474;28;19932;-73
2023/03/09 14:14:55;;;;;;;;;;;3.50;99.90;;;;;;5087100;28;19936;-74
2023/03/09 14:17:21;;;;;;;;;;;3.50;99.90;;;;;;5071480;28;20041;-74
2023/03/09 14:19:49;;;;;;;;;;;3.60;99.90;;;;;;5071779;28;20555;-74
2023/03/09 14:22:17;;;;;;;;;;;3.60;99.90;;;;;;5072923;28;19935;-75
2023/03/09 14:24:43;;;;;;;;;;;3.60;99.90;;;;;;5095512;28;19923;-74
2023/03/09 14:27:17;;;;;;;;;;;3.60;99.90;;;;;;5075731;28;19963;-74
2023/03/09 14:29:43;;;;;;;;;;;3.60;99.90;;;;;;5089709;28;19993;-75
2023/03/09 14:32:16;;;;;;;;;;;3.50;99.90;;;;;;5093211;28;20015;-75
2023/03/09 14:34:42;;;;;;;;;;;3.50;99.90;;;;;;5089801;28;19927;-75
2023/03/09 14:37:15;;;;;;;;;;;3.40;99.90;;;;;;5072208;28;19928;-75